createdAt,value
2023-01-01T00:00:25.816Z,96685.47
2023-01-01T00:02:54.205Z,96682.44
2023-01-01T00:05:23.972Z,96691.06
2023-01-01T00:07:52.319Z,96688.25
2023-01-01T00:10:28.666Z,96697.88
2023-01-01T00:12:57.356Z,96697.06
2023-01-01T00:15:25.792Z,96692.56
2023-01-01T00:17:54.216Z,96689.09
2023-01-01T00:20:24.074Z,96675.00
2023-01-01T00:22:55.403Z,96700.69
2023-01-01T00:25:24.569Z,96686.59
2023-01-01T00:27:53.245Z,96691.25
2023-01-01T00:30:21.631Z,96704.03
2023-01-01T00:32:54.711Z,96702.50
2023-01-01T00:35:26.998Z,96703.00
2023-01-01T00:37:56.330Z,96700.50
2023-01-01T00:40:24.808Z,96698.88
2023-01-01T00:42:53.149Z,96699.19
2023-01-01T00:45:22.894Z,96710.16
2023-01-01T00:47:52.950Z,96722.91
2023-01-01T00:50:22.205Z,96706.34
2023-01-01T00:52:51.892Z,96699.38
2023-01-01T00:55:20.239Z,96705.69
2023-01-01T00:57:48.641Z,96706.50
2023-01-01T01:00:18.040Z,96704.66
2023-01-01T01:02:46.671Z,96707.47
2023-01-01T01:05:15.209Z,96711.13
2023-01-01T01:07:43.614Z,96706.66
2023-01-01T01:10:13.425Z,96738.97
2023-01-01T01:12:42.111Z,96724.38
2023-01-01T01:15:11.767Z,96729.84
2023-01-01T01:17:40.452Z,96740.44
2023-01-01T01:20:10.007Z,96744.28
2023-01-01T01:22:38.866Z,96746.09
2023-01-01T01:25:08.901Z,96741.63
2023-01-01T01:27:48.626Z,96753.19
2023-01-01T01:30:16.979Z,96740.94
2023-01-01T01:32:45.338Z,96756.34
2023-01-01T01:35:13.659Z,96755.84
2023-01-01T01:37:42.026Z,96751.88
2023-01-01T01:40:15.781Z,96755.69
2023-01-01T01:42:49.225Z,96757.03
2023-01-01T01:45:17.774Z,96755.50
2023-01-01T01:47:51.217Z,96758.16
2023-01-01T01:50:25.864Z,96754.84
2023-01-01T01:53:03.862Z,96749.72
2023-01-01T01:55:36.109Z,96759.47
2023-01-01T01:58:09.613Z,96762.28
2023-01-01T02:00:38.430Z,96772.41
2023-01-01T02:03:09.910Z,96775.53
2023-01-01T02:05:39.075Z,96783.63
2023-01-01T02:08:09.702Z,96789.84
2023-01-01T02:10:38.183Z,96793.78
2023-01-01T02:13:08.058Z,96790.78
2023-01-01T02:15:42.232Z,96792.75
2023-01-01T02:18:14.631Z,96774.91
2023-01-01T02:20:49.596Z,96785.84
2023-01-01T02:23:46.241Z,96787.78
2023-01-01T02:26:39.766Z,96792.38
2023-01-01T02:29:18.699Z,96790.88
2023-01-01T02:31:55.323Z,96795.75
2023-01-01T02:34:29.677Z,96791.25
2023-01-01T02:37:01.529Z,96785.91
2023-01-01T02:39:34.895Z,96794.47
2023-01-01T02:42:06.232Z,96794.28
2023-01-01T02:44:41.062Z,96793.03
2023-01-01T02:47:11.842Z,96800.06
2023-01-01T02:49:48.145Z,96790.25
2023-01-01T02:52:33.785Z,96775.00
2023-01-01T02:55:08.587Z,96773.88
2023-01-01T02:57:42.082Z,96779.13
2023-01-01T03:00:19.833Z,96779.97
2023-01-01T03:03:06.004Z,96788.13
2023-01-01T03:06:01.477Z,96789.25
2023-01-01T03:08:39.003Z,96770.50
2023-01-01T03:11:11.349Z,96771.22
2023-01-01T03:13:46.871Z,96776.09
2023-01-01T03:16:22.117Z,96763.09
2023-01-01T03:19:11.696Z,96762.81
2023-01-01T03:21:47.016Z,96756.72
2023-01-01T03:24:21.056Z,96757.72
2023-01-01T03:26:53.979Z,96762.38
2023-01-01T03:29:24.464Z,96762.56
2023-01-01T03:31:57.936Z,96769.03
2023-01-01T03:34:32.751Z,96762.44
2023-01-01T03:37:05.890Z,96763.09
2023-01-01T03:39:37.365Z,96770.38
2023-01-01T03:42:15.809Z,96762.13
2023-01-01T03:44:49.012Z,96760.66
2023-01-01T03:47:19.446Z,96755.16
2023-01-01T03:49:48.452Z,96738.13
2023-01-01T03:52:27.453Z,96758.47
2023-01-01T03:55:06.259Z,96761.81
2023-01-01T03:57:44.460Z,96761.81
2023-01-01T04:00:17.076Z,96770.44
2023-01-01T04:02:51.938Z,96767.59
2023-01-01T04:05:21.800Z,96775.53
2023-01-01T04:10:19.267Z,96779.56
2023-01-01T04:12:50.209Z,96779.56
2023-01-01T04:15:20.207Z,96781.34
2023-01-01T04:17:50.088Z,96786.66
2023-01-01T04:20:19.097Z,96791.13
2023-01-01T04:22:47.775Z,96791.94
2023-01-01T04:25:17.435Z,96794.59
2023-01-01T04:27:45.991Z,96788.31
2023-01-01T04:30:15.821Z,96792.78
2023-01-01T04:32:44.202Z,96796.28
2023-01-01T04:35:15.754Z,96807.03
2023-01-01T04:37:45.968Z,96802.38
2023-01-01T04:40:15.170Z,96811.16
2023-01-01T04:42:44.435Z,96809.66
2023-01-01T04:45:15.214Z,96814.16
2023-01-01T04:47:44.608Z,96826.72
2023-01-01T04:50:14.459Z,96823.06
2023-01-01T04:52:42.789Z,96833.69
2023-01-01T04:55:11.382Z,96833.69
2023-01-01T04:57:39.801Z,96833.69
2023-01-01T05:00:09.590Z,96840.66
2023-01-01T05:02:38.299Z,96835.66
2023-01-01T05:05:07.050Z,96829.38
2023-01-01T05:07:36.993Z,96836.66
2023-01-01T05:10:06.166Z,96844.63
2023-01-01T05:12:34.512Z,96845.44
2023-01-01T05:15:03.199Z,96854.22
2023-01-01T05:17:31.760Z,96849.72
2023-01-01T05:20:00.424Z,96848.91
2023-01-01T05:22:28.756Z,96849.91
2023-01-01T05:24:58.547Z,96841.97
2023-01-01T05:27:26.869Z,96840.44
2023-01-01T05:29:55.273Z,96848.56
2023-01-01T05:32:23.574Z,96838.97
2023-01-01T05:34:53.124Z,96853.19
2023-01-01T05:37:21.513Z,96848.88
2023-01-01T05:39:49.865Z,96857.81
2023-01-01T05:42:20.086Z,96843.59
2023-01-01T05:44:48.487Z,96846.41
2023-01-01T05:47:18.662Z,96857.16
2023-01-01T05:49:47.240Z,96856.47
2023-01-01T05:52:15.629Z,96858.47
2023-01-01T05:54:43.950Z,96857.78
2023-01-01T05:57:12.430Z,96863.25
2023-01-01T05:59:42.116Z,96855.31
2023-01-01T06:02:10.543Z,96877.66
2023-01-01T06:04:39.101Z,96865.56
2023-01-01T06:07:07.636Z,96869.34
2023-01-01T06:09:35.984Z,96863.56
2023-01-01T06:12:04.337Z,96867.19
2023-01-01T06:14:32.718Z,96876.97
2023-01-01T06:17:02.680Z,96870.66
2023-01-01T06:19:31.011Z,96885.88
2023-01-01T06:21:59.308Z,96877.25
2023-01-01T06:24:27.693Z,96866.81
2023-01-01T06:26:56.031Z,96871.97
2023-01-01T06:29:25.791Z,96864.16
2023-01-01T06:31:54.092Z,96882.56
2023-01-01T06:34:23.834Z,96880.91
2023-01-01T06:36:52.235Z,96877.41
2023-01-01T06:39:20.564Z,96884.38
2023-01-01T06:41:48.927Z,96869.31
2023-01-01T06:44:17.301Z,96870.13
2023-01-01T06:46:45.675Z,96869.16
2023-01-01T06:49:14.194Z,96871.66
2023-01-01T06:51:44.963Z,96891.16
2023-01-01T06:54:13.493Z,96883.06
2023-01-01T06:56:41.829Z,96895.16
2023-01-01T06:59:10.390Z,96875.78
2023-01-01T07:01:44.537Z,96875.94
2023-01-01T07:04:14.670Z,96873.31
2023-01-01T07:06:44.560Z,96893.50
2023-01-01T07:09:13.040Z,96879.44
2023-01-01T07:11:43.182Z,96873.97
2023-01-01T07:14:11.731Z,96866.88
2023-01-01T07:16:40.089Z,96875.66
2023-01-01T07:19:08.449Z,96887.06
2023-01-01T07:21:42.009Z,96893.19
2023-01-01T07:24:14.439Z,96910.75
2023-01-01T07:26:42.844Z,96903.78
2023-01-01T07:29:11.199Z,96897.66
2023-01-01T07:31:41.738Z,96912.88
2023-01-01T07:34:14.837Z,96904.94
2023-01-01T07:36:43.865Z,96904.78
2023-01-01T07:39:13.585Z,96909.91
2023-01-01T07:41:41.937Z,96904.28
2023-01-01T07:44:10.749Z,96896.72
2023-01-01T07:46:39.218Z,96894.56
2023-01-01T07:49:07.657Z,96907.66
2023-01-01T07:51:36.331Z,96915.28
2023-01-01T07:54:07.423Z,96926.38
2023-01-01T07:56:37.610Z,96914.63
2023-01-01T07:59:07.732Z,96925.22
2023-01-01T08:01:38.208Z,96919.13
2023-01-01T08:04:07.151Z,96931.38
2023-01-01T08:06:35.474Z,96931.38
2023-01-01T08:09:03.906Z,96932.72
2023-01-01T08:11:32.300Z,96932.22
2023-01-01T08:14:02.199Z,96936.38
2023-01-01T08:16:30.568Z,96936.72
2023-01-01T08:18:58.932Z,96929.28
2023-01-01T08:21:27.248Z,96933.13
2023-01-01T08:23:55.622Z,96933.31
2023-01-01T08:26:30.187Z,96934.31
2023-01-01T08:28:59.010Z,96939.78
2023-01-01T08:31:28.986Z,96950.78
2023-01-01T08:33:57.455Z,96951.97
2023-01-01T08:36:26.399Z,96953.28
2023-01-01T08:38:54.731Z,96956.47
2023-01-01T08:41:23.186Z,96953.97
2023-01-01T08:43:51.545Z,96952.66
2023-01-01T08:46:19.983Z,96958.47
2023-01-01T08:48:49.720Z,96967.75
2023-01-01T08:51:18.319Z,96975.06
2023-01-01T08:53:50.802Z,96977.06
2023-01-01T08:56:20.306Z,96968.44
2023-01-01T08:58:49.572Z,96975.91
2023-01-01T09:01:21.482Z,96975.41
2023-01-01T09:03:51.564Z,96973.59
2023-01-01T09:06:20.344Z,96977.53
2023-01-01T09:08:48.971Z,96978.41
2023-01-01T09:11:23.395Z,96985.03
2023-01-01T09:13:52.284Z,96984.38
2023-01-01T09:16:21.735Z,96986.00
2023-01-01T09:18:51.701Z,96997.94
2023-01-01T09:21:20.065Z,97008.91
2023-01-01T09:23:48.449Z,97012.91
2023-01-01T09:26:16.860Z,97015.06
2023-01-01T09:28:45.195Z,97011.06
2023-01-01T09:31:13.633Z,97018.22
2023-01-01T09:33:42.063Z,97013.09
2023-01-01T09:36:16.520Z,97005.78
2023-01-01T09:38:49.833Z,97003.78
2023-01-01T09:41:26.866Z,97007.78
2023-01-01T09:44:07.768Z,97001.13
2023-01-01T09:46:37.057Z,97004.25
2023-01-01T09:49:13.261Z,97008.56
2023-01-01T09:51:51.123Z,97009.91
2023-01-01T09:54:29.361Z,97009.22
2023-01-01T09:57:00.646Z,97012.88
2023-01-01T09:59:29.627Z,97008.53
2023-01-01T10:02:05.965Z,97010.16
2023-01-01T10:04:52.735Z,96998.31
2023-01-01T10:07:30.523Z,96995.78
2023-01-01T10:10:11.019Z,97001.09
2023-01-01T10:12:49.896Z,97000.88
2023-01-01T10:15:23.738Z,97000.34
2023-01-01T10:17:58.393Z,96993.00
2023-01-01T10:20:33.553Z,97001.47
2023-01-01T10:23:09.951Z,97000.47
2023-01-01T10:25:41.176Z,96999.31
2023-01-01T10:28:17.023Z,97004.25
2023-01-01T10:30:45.571Z,97002.25
2023-01-01T10:33:15.132Z,96998.25
2023-01-01T10:35:47.959Z,96993.59
2023-01-01T10:38:23.811Z,96992.41
2023-01-01T10:40:53.053Z,96992.06
2023-01-01T10:43:21.386Z,96980.22
2023-01-01T10:45:54.557Z,96971.03
2023-01-01T10:48:24.530Z,96972.81
2023-01-01T10:50:57.036Z,96974.78
2023-01-01T10:53:30.046Z,96972.25
2023-01-01T10:56:04.365Z,96971.38
2023-01-01T10:58:41.518Z,96970.50
2023-01-01T11:01:11.857Z,96968.09
2023-01-01T11:03:58.399Z,96953.22
2023-01-01T11:06:28.912Z,96956.03
2023-01-01T11:09:03.161Z,96959.78
2023-01-01T11:11:34.358Z,96949.41
2023-01-01T11:14:06.155Z,96940.69
2023-01-01T11:16:34.733Z,96935.47
2023-01-01T11:19:07.888Z,96930.22
2023-01-01T11:21:36.708Z,96927.47
2023-01-01T11:24:19.311Z,96923.34
2023-01-01T11:26:54.282Z,96922.00
2023-01-01T11:29:27.074Z,96916.78
2023-01-01T11:31:56.444Z,96919.34
2023-01-01T11:34:35.766Z,96921.00
2023-01-01T11:37:13.029Z,96916.13
2023-01-01T11:39:46.602Z,96915.28
2023-01-01T11:42:19.930Z,96906.91
2023-01-01T11:44:50.473Z,96902.72
2023-01-01T11:47:26.134Z,96894.13
2023-01-01T11:49:58.017Z,96894.22
2023-01-01T11:52:36.405Z,96883.34
2023-01-01T11:55:16.957Z,96877.63
2023-01-01T11:57:52.288Z,96878.09
2023-01-01T12:00:21.205Z,96878.31
2023-01-01T12:02:55.616Z,96878.78
2023-01-01T12:05:26.655Z,96871.41
2023-01-01T12:07:59.388Z,96870.84
2023-01-01T12:10:36.152Z,96868.63
2023-01-01T12:13:08.264Z,96875.41
2023-01-01T12:15:40.522Z,96881.84
2023-01-01T12:18:17.459Z,96874.47
2023-01-01T12:20:53.589Z,96877.41
2023-01-01T12:23:22.128Z,96856.44
2023-01-01T12:26:02.841Z,96856.72
2023-01-01T12:28:42.331Z,96856.97
2023-01-01T12:31:17.465Z,96861.72
2023-01-01T12:34:04.873Z,96862.78
2023-01-01T12:36:44.618Z,96858.97
2023-01-01T12:40:00.905Z,96857.59
2023-01-01T12:42:42.676Z,96865.53
2023-01-01T12:45:31.123Z,96860.75
2023-01-01T12:48:09.037Z,96847.13
2023-01-01T12:50:54.229Z,96853.78
2023-01-01T12:53:32.988Z,96862.53
2023-01-01T12:56:17.520Z,96855.78
2023-01-01T12:58:56.828Z,96855.78
2023-01-01T13:01:33.554Z,96859.09
2023-01-01T13:04:05.301Z,96859.06
2023-01-01T13:06:41.003Z,96853.31
2023-01-01T13:09:17.024Z,96858.03
2023-01-01T13:11:49.422Z,96852.47
2023-01-01T13:14:19.576Z,96859.91
2023-01-01T13:16:52.677Z,96855.81
2023-01-01T13:19:33.056Z,96864.03
2023-01-01T13:22:22.301Z,96840.09
2023-01-01T13:25:05.792Z,96845.03
2023-01-01T13:28:05.697Z,96851.59
2023-01-01T13:30:52.646Z,96843.91
2023-01-01T13:33:29.758Z,96851.09
2023-01-01T13:36:32.287Z,96850.28
2023-01-01T13:39:01.643Z,96844.91
2023-01-01T13:41:31.816Z,96845.53
2023-01-01T13:44:20.022Z,96840.41
2023-01-01T13:47:05.015Z,96842.47
2023-01-01T13:49:47.684Z,96838.41
2023-01-01T13:52:53.345Z,96832.19
2023-01-01T13:55:51.246Z,96838.41
2023-01-01T13:58:40.378Z,96838.00
2023-01-01T14:01:32.066Z,96838.44
2023-01-01T14:04:03.101Z,96834.09
2023-01-01T14:06:37.475Z,96846.47
2023-01-01T14:09:13.116Z,96839.69
2023-01-01T14:11:42.295Z,96843.00
2023-01-01T14:14:24.329Z,96837.19
2023-01-01T14:16:55.093Z,96837.63
2023-01-01T14:19:26.033Z,96826.91
2023-01-01T14:21:55.615Z,96828.16
2023-01-01T14:24:25.988Z,96832.72
2023-01-01T14:26:55.882Z,96836.38
2023-01-01T14:29:28.866Z,96824.56
2023-01-01T14:31:59.722Z,96825.50
2023-01-01T14:34:31.381Z,96828.28
2023-01-01T14:37:02.571Z,96835.16
2023-01-01T14:39:32.300Z,96836.03
2023-01-01T14:42:04.404Z,96836.97
2023-01-01T14:44:37.653Z,96838.06
2023-01-01T14:47:17.960Z,96829.50
2023-01-01T14:49:48.293Z,96829.53
2023-01-01T14:52:26.519Z,96835.94
2023-01-01T14:54:56.478Z,96829.84
2023-01-01T14:57:28.221Z,96828.66
2023-01-01T14:59:56.852Z,96832.19
2023-01-01T15:02:28.390Z,96839.41
2023-01-01T15:04:59.227Z,96835.09
2023-01-01T15:07:30.388Z,96842.53
2023-01-01T15:10:01.145Z,96845.47
2023-01-01T15:12:30.651Z,96842.91
2023-01-01T15:14:59.165Z,96845.03
2023-01-01T15:17:28.835Z,96839.13
2023-01-01T15:20:07.631Z,96847.38
2023-01-01T15:22:39.063Z,96852.59
2023-01-01T15:25:14.662Z,96863.16
2023-01-01T15:27:44.469Z,96858.16
2023-01-01T15:30:25.540Z,96865.69
2023-01-01T15:32:54.408Z,96860.91
2023-01-01T15:35:31.755Z,96856.09
2023-01-01T15:38:03.214Z,96854.81
2023-01-01T15:40:34.981Z,96855.72
2023-01-01T15:43:20.397Z,96855.59
2023-01-01T15:45:57.796Z,96862.47
2023-01-01T15:48:32.896Z,96860.69
2023-01-01T15:51:08.070Z,96862.56
2023-01-01T15:53:49.090Z,96870.78
2023-01-01T15:56:17.974Z,96866.97
2023-01-01T15:58:53.861Z,96863.22
2023-01-01T16:01:24.662Z,96854.28
2023-01-01T16:04:01.138Z,96855.00
2023-01-01T16:06:31.216Z,96852.19
2023-01-01T16:08:59.564Z,96848.75
2023-01-01T16:11:28.001Z,96850.44
2023-01-01T16:13:56.340Z,96858.25
2023-01-01T16:16:29.131Z,96848.94
2023-01-01T16:18:58.659Z,96852.13
2023-01-01T16:21:30.997Z,96859.63
2023-01-01T16:23:59.751Z,96858.31
2023-01-01T16:26:28.487Z,96857.66
2023-01-01T16:28:56.906Z,96861.81
2023-01-01T16:31:28.501Z,96864.84
2023-01-01T16:33:59.182Z,96860.19
2023-01-01T16:36:29.200Z,96855.06
2023-01-01T16:38:59.902Z,96853.75
2023-01-01T16:41:30.321Z,96864.38
2023-01-01T16:43:58.877Z,96860.38
2023-01-01T16:46:28.125Z,96863.22
2023-01-01T16:48:56.751Z,96856.25
2023-01-01T16:51:26.465Z,96853.75
2023-01-01T16:53:55.288Z,96856.56
2023-01-01T16:56:25.112Z,96848.59
2023-01-01T16:59:02.200Z,96849.63
2023-01-01T17:01:31.589Z,96855.75
2023-01-01T17:04:00.638Z,96846.81
2023-01-01T17:06:29.134Z,96846.97
2023-01-01T17:08:57.520Z,96854.59
2023-01-01T17:11:27.700Z,96851.00
2023-01-01T17:13:56.602Z,96854.94
2023-01-01T17:16:29.039Z,96855.31
2023-01-01T17:19:17.276Z,96852.81
2023-01-01T17:21:46.692Z,96846.03
2023-01-01T17:24:16.137Z,96853.50
2023-01-01T17:26:46.172Z,96852.19
2023-01-01T17:29:14.539Z,96855.97
2023-01-01T17:31:43.938Z,96860.81
2023-01-01T17:34:14.302Z,96858.31
2023-01-01T17:36:44.511Z,96856.84
2023-01-01T17:39:13.307Z,96852.66
2023-01-01T17:41:41.918Z,96861.31
2023-01-01T17:44:11.688Z,96856.97
2023-01-01T17:46:40.981Z,96848.56
2023-01-01T17:49:10.770Z,96856.16
2023-01-01T17:51:39.467Z,96854.03
2023-01-01T17:54:11.671Z,96853.69
2023-01-01T17:56:40.057Z,96848.53
2023-01-01T17:59:09.403Z,96852.19
2023-01-01T18:01:39.246Z,96855.31
2023-01-01T18:04:09.496Z,96848.22
2023-01-01T18:06:42.431Z,96851.84
2023-01-01T18:09:13.151Z,96860.31
2023-01-01T18:11:42.801Z,96852.00
2023-01-01T18:14:12.023Z,96850.66
2023-01-01T18:16:44.560Z,96851.97
2023-01-01T18:19:13.311Z,96853.31
2023-01-01T18:21:43.080Z,96848.47
2023-01-01T18:24:14.504Z,96846.97
2023-01-01T18:26:43.533Z,96841.03
2023-01-01T18:29:11.900Z,96840.34
2023-01-01T18:31:41.866Z,96839.84
2023-01-01T18:34:11.564Z,96839.34
2023-01-01T18:36:40.545Z,96845.97
2023-01-01T18:39:16.088Z,96840.81
2023-01-01T18:42:10.197Z,96840.97
2023-01-01T18:44:39.053Z,96843.97
2023-01-01T18:47:16.073Z,96826.56
2023-01-01T18:49:49.663Z,96830.69
2023-01-01T18:52:25.751Z,96827.84
2023-01-01T18:55:12.345Z,96821.06
2023-01-01T18:57:41.700Z,96824.84
2023-01-01T19:00:19.420Z,96822.69
2023-01-01T19:02:55.952Z,96816.88
2023-01-01T19:05:27.196Z,96810.09
2023-01-01T19:08:02.971Z,96815.56
2023-01-01T19:10:36.887Z,96824.66
2023-01-01T19:13:17.105Z,96821.34
2023-01-01T19:15:47.955Z,96812.72
2023-01-01T19:18:19.785Z,96810.09
2023-01-01T19:20:52.045Z,96809.22
2023-01-01T19:23:23.939Z,96817.16
2023-01-01T19:25:52.828Z,96813.69
2023-01-01T19:28:32.454Z,96811.06
2023-01-01T19:31:01.800Z,96809.22
2023-01-01T19:33:31.966Z,96797.81
2023-01-01T19:36:00.517Z,96809.06
2023-01-01T19:38:28.942Z,96801.28
2023-01-01T19:40:57.244Z,96801.28
2023-01-01T19:43:25.658Z,96804.78
2023-01-01T19:45:54.019Z,96794.19
2023-01-01T19:48:22.610Z,96795.84
2023-01-01T19:50:52.549Z,96794.00
2023-01-01T19:53:20.865Z,96784.94
2023-01-01T19:55:49.240Z,96805.97
2023-01-01T19:58:19.789Z,96789.88
2023-01-01T20:00:48.246Z,96781.94
2023-01-01T20:03:52.288Z,96788.09
2023-01-01T20:06:06.934Z,96785.25
2023-01-01T20:08:37.943Z,96782.28
2023-01-01T20:11:06.892Z,96778.19
2023-01-01T20:13:35.633Z,96779.66
2023-01-01T20:16:04.038Z,96774.06
2023-01-01T20:18:32.497Z,96780.84
2023-01-01T20:21:23.543Z,96774.38
2023-01-01T20:23:55.965Z,96775.22
2023-01-01T20:26:28.889Z,96779.34
2023-01-01T20:29:14.686Z,96767.78
2023-01-01T20:31:43.932Z,96771.25
2023-01-01T20:34:12.880Z,96760.66
2023-01-01T20:36:58.777Z,96760.66
2023-01-01T20:39:28.644Z,96759.63
2023-01-01T20:41:57.392Z,96752.69
2023-01-01T20:44:25.839Z,96753.53
2023-01-01T20:46:54.448Z,96744.75
2023-01-01T20:49:23.465Z,96748.88
2023-01-01T20:51:53.324Z,96741.59
2023-01-01T20:54:23.588Z,96750.22
2023-01-01T20:56:53.685Z,96738.63
2023-01-01T20:59:38.926Z,96739.47
2023-01-01T21:02:09.133Z,96739.63
2023-01-01T21:04:39.523Z,96737.31
2023-01-01T21:07:10.423Z,96733.66
2023-01-01T21:09:40.053Z,96736.28
2023-01-01T21:12:10.551Z,96741.59
2023-01-01T21:14:38.995Z,96730.03
2023-01-01T21:17:21.145Z,96724.56
2023-01-01T21:19:50.060Z,96728.84
2023-01-01T21:22:18.515Z,96730.53
2023-01-01T21:24:51.838Z,96722.56
2023-01-01T21:27:29.198Z,96714.44
2023-01-01T21:29:59.989Z,96708.16
2023-01-01T21:32:33.047Z,96710.81
2023-01-01T21:35:01.491Z,96703.84
2023-01-01T21:37:49.800Z,96710.16
2023-01-01T21:40:39.439Z,96706.69
2023-01-01T21:43:21.352Z,96714.78
2023-01-01T21:45:50.093Z,96700.88
2023-01-01T21:48:20.642Z,96707.16
2023-01-01T21:50:50.962Z,96708.97
2023-01-01T21:53:21.030Z,96705.66
2023-01-01T21:55:54.806Z,96703.34
2023-01-01T21:58:44.589Z,96703.53
2023-01-01T22:01:22.325Z,96714.13
2023-01-01T22:04:02.415Z,96703.69
2023-01-01T22:06:37.040Z,96694.06
2023-01-01T22:09:15.242Z,96701.19
2023-01-01T22:11:44.041Z,96703.84
2023-01-01T22:14:17.337Z,96700.38
2023-01-01T22:16:48.123Z,96698.69
2023-01-01T22:19:18.201Z,96695.25
2023-01-01T22:21:47.656Z,96693.25
2023-01-01T22:24:30.781Z,96690.59
2023-01-01T22:27:19.012Z,96698.22
2023-01-01T22:29:48.973Z,96697.38
2023-01-01T22:32:22.553Z,96703.53
2023-01-01T22:34:52.307Z,96694.56
2023-01-01T22:37:22.941Z,96694.56
2023-01-01T22:39:52.245Z,96704.34
2023-01-01T22:42:22.403Z,96715.75
2023-01-01T22:44:58.286Z,96700.19
2023-01-01T22:47:34.133Z,96710.78
2023-01-01T22:50:03.850Z,96704.81
2023-01-01T22:52:33.000Z,96720.06
2023-01-01T22:55:01.379Z,96708.47
2023-01-01T22:57:29.814Z,96719.91
2023-01-01T22:59:59.693Z,96726.03
2023-01-01T23:02:28.117Z,96723.56
2023-01-01T23:04:56.490Z,96724.22
2023-01-01T23:07:24.928Z,96708.81
2023-01-01T23:09:53.294Z,96713.94
2023-01-01T23:12:21.747Z,96714.78
2023-01-01T23:15:07.794Z,96707.97
2023-01-01T23:17:37.590Z,96716.94
2023-01-01T23:20:08.524Z,96707.47
2023-01-01T23:22:41.257Z,96707.94
2023-01-01T23:25:12.915Z,96710.06
2023-01-01T23:27:42.053Z,96711.22
2023-01-01T23:30:14.370Z,96715.34
2023-01-01T23:32:44.980Z,96717.94
2023-01-01T23:35:13.590Z,96719.22
2023-01-01T23:37:42.269Z,96708.56
2023-01-01T23:40:11.905Z,96703.25
2023-01-01T23:42:40.257Z,96701.16
2023-01-01T23:45:09.231Z,96696.72
2023-01-01T23:47:38.469Z,96690.19
2023-01-01T23:50:09.266Z,96692.84
2023-01-01T23:52:38.297Z,96700.13
2023-01-01T23:55:07.751Z,96696.81
2023-01-01T23:57:36.372Z,96697.19
